Date,TemperatureHighF,TemperatureAvgF,TemperatureLowF,DewpointHighF,DewpointAvgF,DewpointLowF,HumidityHigh,HumidityAvg,HumidityLow,PressureMaxIn,PressureMinIn,WindSpeedMaxMPH,WindSpeedAvgMPH,GustSpeedMaxMPH,PrecipitationSumIn
2014-1-1,67.4,46.2,32.6,40.9,35.7,29.7,90,70,35,30.24,30.12,4,0,4,0.00
2014-1-2,67.8,47.3,34.2,42.0,37.1,31.2,91,71,37,30.19,30.06,4,0,4,0.00
2014-1-3,65.6,48.0,35.1,43.9,38.4,32.2,92,72,42,30.10,29.96,4,0,4,0.00
2014-1-4,66.9,47.8,34.9,43.3,37.9,32.4,92,72,38,30.09,29.98,4,0,4,0.00
2014-1-5,68.8,47.6,33.9,44.7,37.8,31.4,93,72,38,30.24,30.09,4,0,4,0.00
2014-1-6,67.3,47.9,33.5,43.8,36.9,30.9,92,69,37,30.30,30.17,2,0,2,0.00
2014-1-7,61.5,48.1,38.6,41.1,37.1,33.2,85,68,42,30.22,30.11,2,0,2,0.00
2014-1-8,62.7,46.9,34.6,43.3,37.2,31.1,89,71,46,30.25,30.11,6,0,6,0.00
2014-1-9,59.7,46.1,37.5,48.1,40.7,34.1,93,82,64,30.24,30.14,4,0,4,0.00
2014-1-10,65.2,49.2,39.5,47.9,42.2,36.6,92,78,52,30.30,30.18,4,0,4,0.00
2014-1-11,66.0,49.5,37.0,47.8,42.3,35.4,96,78,49,30.26,30.11,4,0,4,0.00
2014-1-12,60.2,48.1,39.3,48.5,42.8,36.7,94,83,60,30.38,30.20,7,0,7,0.00
2014-1-13,63.8,46.2,34.3,47.4,40.5,32.8,97,82,53,30.49,30.34,4,0,4,0.00
2014-1-14,65.6,46.6,34.9,46.3,40.0,33.3,95,80,49,30.50,30.36,4,0,4,0.00
2014-1-15,70.3,49.3,34.3,46.1,40.2,32.5,95,74,38,30.37,30.23,4,0,4,0.00
2014-1-16,74.0,49.9,34.2,47.3,39.2,31.6,92,70,32,30.27,30.14,4,0,4,0.00
2014-1-17,76.6,51.5,35.1,46.4,36.1,29.5,88,61,18,30.21,30.09,6,1,6,0.00
2014-1-18,71.3,50.2,34.6,43.9,36.6,29.8,85,63,33,30.20,30.07,5,0,5,0.00
2014-1-19,72.4,50.5,34.8,44.4,37.6,30.4,86,65,33,30.15,30.04,4,0,4,0.00
2014-1-20,72.8,50.4,34.4,43.9,37.5,30.7,88,66,29,30.25,30.12,4,0,4,0.00
2014-1-21,67.1,49.1,36.0,43.8,38.0,31.2,85,68,38,30.26,30.16,4,0,4,0.00
2014-1-22,70.3,51.1,39.6,42.3,38.6,34.3,87,65,33,30.20,29.94,4,0,4,0.00
2014-1-23,71.1,52.5,35.3,36.9,33.3,29.0,84,52,23,30.04,29.85,4,1,4,0.00
2014-1-24,75.9,58.7,45.3,42.0,35.7,29.9,74,46,19,30.21,30.04,5,1,5,0.00
2014-1-25,76.0,57.7,45.6,39.0,35.4,30.8,70,46,20,30.25,30.11,4,0,4,0.00
2014-1-26,67.5,53.4,43.2,39.8,35.2,31.6,71,52,27,30.13,30.00,2,0,2,0.00
2014-1-27,70.3,51.7,38.2,39.9,35.1,31.4,78,56,28,30.18,30.04,4,0,4,0.00
2014-1-28,70.1,52.9,40.1,41.3,37.0,33.1,78,58,31,30.25,30.14,4,0,4,0.00
2014-1-29,72.1,55.2,41.9,42.2,38.7,35.2,79,56,32,30.20,29.94,6,0,6,0.00
2014-1-30,56.8,52.4,47.1,53.9,46.6,38.5,96,82,59,29.94,29.84,2,0,2,0.18
2014-1-31,60.4,49.8,40.2,50.9,44.4,37.8,97,83,55,30.04,29.87,6,1,6,0.14
2014-2-1,61.3,45.0,34.0,40.5,35.9,32.4,97,74,37,30.16,30.04,5,0,5,0.00
2014-2-2,56.7,46.7,37.2,39.5,34.9,30.0,88,66,38,30.12,29.92,8,1,8,0.00
2014-2-3,58.9,44.9,32.8,43.5,37.9,30.2,92,77,55,30.06,29.93,4,1,4,0.00
2014-2-4,57.9,46.6,36.8,44.5,39.8,35.2,97,79,53,30.15,30.05,5,1,5,0.00
2014-2-5,60.3,47.0,35.9,42.6,38.5,34.1,95,75,46,30.22,30.08,5,1,5,0.00
2014-2-6,53.7,49.1,45.5,48.6,45.4,39.1,95,87,73,30.09,29.91,4,0,4,0.20
2014-2-7,58.7,52.7,48.3,50.4,48.4,46.3,96,86,64,30.18,30.04,6,1,6,0.01
2014-2-8,68.4,56.3,49.9,54.0,50.3,48.4,95,81,58,30.26,30.16,4,0,4,0.01
2014-2-9,70.0,59.2,51.6,56.2,52.8,49.9,96,80,59,30.21,30.08,4,0,4,0.02
2014-2-10,70.5,59.3,51.1,57.8,53.8,49.1,97,83,57,30.20,30.11,7,1,7,0.01
2014-2-11,67.2,56.1,49.2,55.4,51.8,47.5,95,86,62,30.22,30.13,4,0,4,0.00
2014-2-12,72.3,55.5,43.5,55.3,49.8,42.4,98,83,52,30.27,30.13,5,0,5,0.00
2014-2-13,74.0,56.7,44.2,57.1,50.6,43.1,98,82,52,30.21,30.07,6,1,6,0.00
2014-2-14,78.2,58.4,44.4,55.4,50.1,43.1,97,77,43,30.16,30.02,4,0,4,0.00
2014-2-15,72.6,55.2,43.9,53.8,47.0,42.1,95,77,39,30.05,29.94,4,0,4,0.00
2014-2-16,72.9,60.0,52.1,55.7,52.5,49.0,95,78,51,30.15,29.97,5,1,5,0.00
2014-2-17,70.2,56.0,43.5,53.8,48.3,41.9,97,77,54,30.13,30.02,6,1,6,0.00
2014-2-18,66.8,53.4,44.2,49.2,45.3,41.3,91,75,50,30.18,30.05,8,1,8,0.00
2014-2-19,69.9,55.2,44.1,49.8,46.2,41.6,93,74,44,30.16,30.01,8,1,8,0.00
2014-2-20,67.9,53.3,42.3,44.7,42.6,39.3,92,70,40,30.20,30.08,5,1,5,0.00
2014-2-21,71.6,54.3,39.6,48.1,43.3,37.2,94,70,42,30.11,29.96,5,1,5,0.00
2014-2-22,73.7,56.0,42.2,50.6,45.0,39.4,92,69,40,30.00,29.88,6,1,6,0.00
2014-2-23,77.1,57.7,43.4,49.9,45.1,40.7,92,67,34,30.01,29.89,6,1,6,0.00
2014-2-24,79.1,59.2,43.4,49.8,45.7,40.2,89,65,34,30.00,29.86,7,1,7,0.00
2014-2-25,82.1,62.1,47.3,49.3,44.4,40.6,81,56,26,29.95,29.82,4,1,4,0.00
2014-2-26,71.4,59.4,51.5,56.6,49.5,42.2,88,70,51,30.02,29.79,5,1,5,0.10
2014-2-27,71.8,59.8,50.9,54.7,49.3,44.5,97,71,38,29.98,29.68,8,1,8,0.12
2014-2-28,70.5,57.9,50.2,57.3,50.9,41.8,95,79,50,29.68,29.43,17,2,17,0.65
2014-3-1,65.6,56.1,48.9,53.4,48.9,45.8,92,78,55,29.89,29.63,4,0,4,0.03
2014-3-2,65.7,54.7,45.2,52.2,48.3,43.6,95,80,55,30.14,29.88,6,1,6,0.00
2014-3-3,70.3,57.4,46.7,54.9,51.5,45.1,97,82,54,30.17,30.04,5,1,5,0.00
2014-3-4,68.9,60.6,52.2,56.3,53.8,50.2,95,79,61,30.10,30.01,4,1,4,0.00
2014-3-5,74.7,61.1,51.2,58.1,53.9,49.2,95,79,51,30.12,30.00,6,1,6,0.00
2014-3-6,76.6,62.9,49.7,60.3,53.4,45.6,92,72,53,30.09,29.99,10,2,10,0.00
2014-3-7,69.6,55.1,45.7,50.4,47.6,43.4,94,78,45,30.16,30.06,5,1,5,0.00
2014-3-8,78.0,58.2,41.4,53.0,46.8,40.1,97,70,30,30.20,30.10,4,1,4,0.00
2014-3-9,77.1,63.4,52.1,52.5,47.5,41.6,83,60,30,30.19,30.06,8,1,8,0.00
2014-3-10,78.1,62.2,47.4,54.4,47.9,42.0,83,62,37,30.12,30.02,8,1,8,0.00
2014-3-11,70.6,56.9,47.9,50.0,46.3,43.2,87,69,46,30.13,29.98,4,1,4,0.00
2014-3-12,75.3,58.0,44.3,51.3,44.4,38.6,93,65,29,30.08,29.94,9,2,9,0.00
2014-3-13,81.6,60.0,42.4,44.4,40.0,33.5,85,52,18,30.01,29.92,5,1,5,0.00
2014-3-14,80.1,60.7,44.3,43.7,39.7,36.4,77,50,22,30.17,30.01,7,1,7,0.00
2014-3-15,82.7,62.6,46.9,51.3,45.6,40.2,79,57,29,30.28,30.17,4,1,4,0.00
2014-3-16,86.4,64.5,47.1,53.6,48.0,42.1,86,60,30,30.31,30.08,5,1,5,0.00
2014-3-17,75.6,60.3,48.1,48.0,45.1,41.2,85,60,30,30.09,29.85,12,2,12,0.00
2014-3-18,75.9,58.8,46.1,46.1,43.2,40.1,87,60,33,29.95,29.84,5,1,5,0.00
2014-3-19,81.4,61.0,43.1,43.7,39.5,30.7,87,52,21,30.07,29.95,6,1,6,0.00
2014-3-20,81.7,62.0,45.2,47.4,40.2,34.0,74,48,21,30.03,29.85,4,1,4,0.00
2014-3-21,82.0,65.2,49.6,49.8,43.6,39.9,71,48,24,29.92,29.81,6,1,6,0.00
2014-3-22,79.4,61.9,47.4,50.5,43.3,39.2,77,53,26,30.04,29.89,5,1,5,0.00
2014-3-23,82.1,62.3,45.7,49.6,44.6,40.1,84,56,27,30.12,29.98,6,1,6,0.00
2014-3-24,84.1,64.2,47.7,50.2,45.2,40.4,79,54,26,30.11,29.93,6,1,6,0.00
2014-3-25,81.2,64.9,49.9,53.0,44.5,32.2,75,51,21,29.97,29.75,10,2,10,0.00
2014-3-26,64.1,57.3,52.2,53.9,50.2,45.9,93,78,52,29.95,29.81,8,1,8,0.21
2014-3-27,68.7,56.7,49.1,51.5,47.0,40.9,96,73,38,30.09,29.95,10,2,10,0.00
2014-3-28,77.2,58.7,44.0,50.2,45.6,41.2,92,66,35,30.21,30.07,5,1,5,0.00
2014-3-29,81.0,62.0,46.7,65.8,48.0,43.1,95,65,27,30.12,29.86,7,1,7,0.02
2014-3-30,67.0,55.5,48.3,51.3,47.3,44.2,96,76,46,30.14,29.97,13,2,13,0.55
2014-3-31,71.7,55.5,44.3,50.9,46.4,40.4,96,75,34,30.03,29.83,7,1,7,0.26
2014-4-1,66.3,53.2,45.3,48.8,44.3,37.4,97,75,36,30.02,29.89,5,1,5,0.06
2014-4-2,65.3,54.0,46.3,46.4,43.5,39.8,93,70,42,30.09,29.92,7,1,7,0.02
2014-4-3,69.9,56.1,42.8,48.7,44.5,40.7,94,68,43,30.14,29.99,5,1,5,0.00
2014-4-4,70.3,56.9,45.5,49.5,45.1,42.5,91,67,39,30.02,29.89,8,2,8,0.00
2014-4-5,69.4,56.1,42.9,49.6,45.9,41.3,96,71,42,30.15,29.98,6,1,6,0.00
2014-4-6,78.6,62.1,47.4,53.2,48.4,43.9,89,64,37,30.21,30.06,8,1,8,0.00
2014-4-7,87.7,67.2,49.1,54.6,50.1,40.1,92,60,20,30.13,30.00,8,1,8,0.00
2014-4-8,91.8,71.0,51.7,56.2,49.7,39.9,83,52,17,30.08,29.93,5,1,5,0.00
2014-4-9,91.5,71.9,55.1,57.1,49.2,44.0,71,48,20,30.02,29.86,5,1,5,0.00
2014-4-10,89.1,71.3,54.0,57.6,51.3,44.1,79,52,28,29.97,29.80,5,1,5,0.00
2014-4-11,90.9,74.2,59.6,57.9,48.5,30.5,75,44,22,29.86,29.69,7,1,7,0.00
2014-4-12,82.2,68.4,55.7,56.6,45.7,32.7,65,45,29,29.82,29.75,8,1,8,0.00
2014-4-13,81.2,65.2,52.2,57.7,51.8,46.7,84,64,40,29.97,29.83,5,1,5,0.00
2014-4-14,88.1,70.7,54.6,56.6,52.0,45.6,89,57,24,30.03,29.92,7,1,7,0.00
2014-4-15,89.0,72.2,57.6,56.0,47.4,37.1,73,45,19,29.96,29.75,9,1,9,0.00
2014-4-16,87.2,68.9,51.8,55.4,48.2,41.3,73,50,26,29.84,29.71,6,1,6,0.00
2014-4-17,87.2,71.2,56.1,54.8,50.4,46.9,76,51,27,29.80,29.69,7,1,7,0.00
2014-4-18,83.2,70.0,58.7,56.1,52.8,50.3,79,56,35,29.85,29.72,8,1,8,0.00
2014-4-19,85.9,70.8,58.0,58.8,50.5,36.2,78,51,29,30.00,29.84,7,1,7,0.00
2014-4-20,83.9,67.1,52.5,54.4,49.0,38.5,79,55,26,30.09,29.97,5,1,5,0.00
2014-4-21,87.6,70.8,53.8,55.5,50.7,47.6,85,53,26,30.01,29.82,6,1,6,0.00
2014-4-22,73.4,63.3,54.2,51.3,41.7,28.0,66,48,23,29.99,29.85,13,3,13,0.00
2014-4-23,76.0,59.2,42.9,46.2,41.6,36.2,83,55,30,30.08,29.97,7,1,7,0.00
2014-4-24,81.6,63.6,46.9,50.7,45.6,39.5,79,55,29,30.07,29.86,7,1,7,0.00
2014-4-25,70.1,58.5,47.6,56.5,51.2,45.2,94,78,49,29.88,29.74,12,1,12,0.45
2014-4-26,66.3,54.6,47.7,50.4,46.8,44.7,95,77,47,30.02,29.78,9,2,9,0.03
2014-4-27,74.6,58.2,43.7,50.1,45.4,41.8,95,66,32,30.09,29.97,6,1,6,0.00
2014-4-28,77.6,62.4,47.2,51.6,47.8,45.0,93,63,34,30.16,30.03,8,1,8,0.00
2014-4-29,87.8,68.9,50.3,51.7,48.8,45.1,90,54,23,30.18,30.00,5,1,5,0.00
2014-4-30,92.3,73.3,55.0,53.0,46.0,36.9,82,45,15,30.08,29.94,8,1,8,0.00
2014-5-1,95.5,76.3,57.0,55.7,47.4,32.6,71,41,15,30.07,29.94,7,1,7,0.00
2014-5-2,96.2,77.0,59.5,54.0,49.9,43.0,72,43,17,30.02,29.85,6,1,6,0.00
2014-5-3,93.1,72.6,57.5,57.4,50.8,42.1,70,49,18,29.96,29.78,5,1,5,0.00
2014-5-4,82.7,67.3,52.8,55.0,50.1,46.5,81,57,34,30.00,29.85,7,1,7,0.00
2014-5-5,79.7,65.7,52.6,54.6,50.8,44.2,90,61,37,29.98,29.77,10,2,10,0.04
2014-5-6,69.2,57.6,50.5,55.7,49.2,45.9,92,75,49,29.91,29.82,12,1,12,0.34
2014-5-7,78.7,65.6,53.7,51.6,48.6,44.7,84,57,30,29.91,29.82,8,1,8,0.00
2014-5-8,80.7,65.5,52.0,52.3,48.4,45.4,82,57,30,30.03,29.92,6,1,6,0.00
2014-5-9,81.9,68.4,56.6,59.4,52.5,48.9,81,59,34,30.06,29.93,8,2,8,0.00
2014-5-10,77.1,63.8,49.7,49.7,43.8,29.5,80,51,19,30.03,29.83,12,3,12,0.00
2014-5-11,82.9,64.7,46.7,46.2,40.0,31.1,78,45,16,30.02,29.91,8,1,5,0.00
2014-5-12,89.4,71.2,50.9,45.1,39.1,27.0,73,37,11,30.07,29.94,10,1,10,0.00
2014-5-13,95.5,75.8,55.6,49.0,40.7,33.6,60,33,12,30.11,30.00,8,1,8,0.00
2014-5-14,98.4,78.0,57.5,52.6,43.1,34.3,63,34,11,30.09,29.94,8,1,8,0.00
2014-5-15,102.0,81.4,60.8,56.7,47.4,39.3,66,35,13,30.03,29.88,6,1,6,0.00
2014-5-16,99.5,80.2,64.5,53.8,47.4,39.1,62,35,14,29.98,29.80,7,1,7,0.00
2014-5-17,93.8,75.7,58.6,50.2,43.3,36.0,67,35,15,29.91,29.74,8,2,8,0.00
2014-5-18,85.9,70.2,54.7,52.9,47.0,40.5,75,46,26,29.91,29.75,9,2,9,0.00
2014-5-19,84.6,68.5,52.1,50.0,44.7,35.2,74,46,20,29.90,29.75,12,2,12,0.00
2014-5-20,76.0,64.5,57.5,48.8,46.3,41.4,70,53,30,29.96,29.85,8,2,8,0.00
2014-5-21,82.7,68.3,60.8,52.6,49.1,44.7,67,51,33,29.93,29.84,5,1,5,0.00
2014-5-22,88.1,70.4,56.3,55.4,51.2,47.7,78,53,27,29.92,29.84,7,1,7,0.00
2014-5-23,93.0,75.2,57.6,56.2,52.5,49.5,77,49,24,29.95,29.79,7,1,7,0.00
2014-5-24,94.8,78.9,62.3,59.6,54.6,50.8,77,46,24,29.89,29.75,8,1,8,0.00
2014-5-25,98.0,81.4,64.3,63.2,57.1,52.4,73,47,26,29.88,29.75,7,1,7,0.00
2014-5-26,99.2,81.1,65.0,61.0,55.3,48.8,75,45,19,29.90,29.80,8,1,8,0.00
2014-5-27,99.2,79.5,61.3,56.4,47.8,37.1,71,38,12,29.94,29.78,7,1,7,0.00
2014-5-28,89.6,73.1,58.4,52.5,44.6,34.7,62,38,19,29.93,29.78,7,1,7,0.00
2014-5-29,90.5,71.0,51.3,47.1,38.9,30.1,63,35,12,29.90,29.80,7,1,7,0.00
2014-5-30,96.8,75.1,53.9,49.0,42.2,32.7,72,36,11,29.85,29.73,6,1,6,0.00
2014-5-31,92.8,73.3,55.4,50.1,43.2,33.5,67,38,14,29.88,29.77,7,1,7,0.00
2014-6-1,98.2,76.7,57.2,49.2,42.6,34.5,58,34,13,29.84,29.67,6,1,6,0.00
2014-6-2,97.3,77.3,62.6,49.3,39.3,25.6,49,28,10,29.77,29.69,7,1,7,0.00
2014-6-3,93.2,73.8,56.5,54.2,46.1,30.5,61,40,17,29.86,29.71,7,1,7,0.00
2014-6-4,95.9,77.3,59.3,55.4,48.3,39.9,66,41,15,29.82,29.69,7,1,7,0.00
2014-6-5,101.0,81.0,61.3,55.3,47.7,36.0,66,36,11,29.77,29.63,8,1,7,0.00
2014-6-6,99.0,81.2,65.3,54.0,47.1,39.3,55,34,13,29.73,29.61,8,1,8,0.00
2014-6-7,100.9,81.8,64.2,59.9,52.3,44.4,56,38,21,29.74,29.62,7,1,7,0.00
2014-6-8,105.1,85.1,66.9,62.2,57.5,53.0,68,43,20,29.75,29.59,6,1,6,0.00
2014-6-9,110.0,89.1,67.8,61.7,54.9,42.8,72,37,12,29.67,29.53,6,1,6,0.00
2014-6-10,104.3,86.2,70.3,57.4,47.7,37.9,38,27,18,29.67,29.55,9,1,9,0.00
2014-6-11,100.2,82.7,68.5,59.9,53.2,45.7,52,38,22,29.77,29.66,5,1,5,0.00
2014-6-12,95.2,79.4,64.2,61.2,56.7,50.7,76,48,28,29.84,29.73,7,1,7,0.00
2014-6-13,91.5,75.1,58.5,51.7,46.1,37.6,70,40,16,29.89,29.76,9,2,9,0.00
2014-6-14,95.4,75.4,56.2,50.5,43.1,22.7,65,37,8,29.86,29.70,7,1,7,0.00
2014-6-15,96.2,76.9,59.7,51.3,45.1,34.6,54,35,12,29.73,29.63,8,1,8,0.00
2014-6-16,89.5,74.0,59.3,52.2,46.4,35.1,66,41,16,29.82,29.73,10,2,10,0.00
2014-6-17,86.4,71.3,56.2,47.9,42.3,26.8,64,39,12,29.86,29.78,10,2,8,0.00
2014-6-18,94.5,74.6,55.1,51.5,44.5,38.4,62,38,15,29.89,29.80,7,1,7,0.00
2014-6-19,99.4,81.6,60.6,53.0,47.0,42.3,57,33,15,29.91,29.79,7,2,7,0.00
2014-6-20,99.6,80.5,61.7,53.1,46.9,37.3,60,35,12,29.89,29.76,9,1,9,0.00
2014-6-21,98.4,78.9,60.7,53.1,48.1,40.3,61,38,14,29.81,29.70,8,1,8,0.00
2014-6-22,98.2,78.3,58.8,52.7,42.9,22.7,65,34,7,29.85,29.72,7,1,7,0.00
2014-6-23,97.6,78.6,59.3,56.3,50.6,41.3,72,42,15,29.86,29.75,8,1,8,0.00
2014-6-24,98.6,80.7,62.3,57.8,52.2,40.8,65,41,14,29.89,29.76,7,2,7,0.00
2014-6-25,96.6,80.0,63.0,58.1,53.6,50.7,65,43,22,29.87,29.74,8,2,8,0.00
2014-6-26,88.6,75.9,62.6,60.1,56.8,54.1,75,54,34,29.90,29.77,9,2,9,0.00
2014-6-27,93.3,76.5,60.2,60.0,55.8,53.0,82,52,27,29.88,29.76,9,1,9,0.00
2014-6-28,96.1,79.6,64.3,63.7,58.0,51.0,82,52,26,29.86,29.74,9,1,9,0.00
2014-6-29,101.0,81.1,62.6,58.8,53.9,47.6,69,43,19,29.85,29.71,8,1,8,0.00
2014-6-30,106.4,87.0,66.0,63.5,55.9,48.1,71,39,16,29.77,29.63,9,1,9,0.00
2014-7-1,107.8,88.6,72.7,62.2,55.7,48.4,54,36,17,29.72,29.60,9,1,9,0.00
2014-7-2,104.0,86.5,69.4,61.7,54.4,46.7,51,35,20,29.76,29.67,7,1,7,0.00
2014-7-3,104.2,85.4,68.5,64.8,57.9,50.1,67,42,17,29.83,29.70,7,1,7,0.00
2014-7-4,107.6,87.8,68.9,63.5,56.3,44.4,72,40,13,29.86,29.75,6,1,6,0.00
2014-7-5,103.6,86.4,68.2,60.4,49.6,37.1,54,31,14,29.96,29.82,7,1,7,0.00
2014-7-6,101.7,84.9,70.2,62.4,52.0,34.3,57,36,12,29.95,29.78,8,1,8,0.00
2014-7-7,77.0,76.9,76.8,58.0,57.7,57.4,52,52,51,29.81,29.81,0,0,0,0.00
2014-7-8,108.7,96.5,80.8,55.3,48.2,43.0,31,21,12,29.77,29.69,6,2,6,0.00
2014-7-9,105.2,87.4,71.5,57.5,49.7,41.7,47,30,12,29.85,29.68,6,1,6,0.00
2014-7-10,101.8,84.6,68.3,59.2,48.1,40.3,55,31,15,29.84,29.70,5,1,5,0.00
2014-7-11,97.2,81.5,66.6,62.0,53.8,40.9,65,41,23,29.90,29.80,8,1,8,0.00
2014-7-12,97.0,81.2,65.7,65.6,61.4,59.0,81,54,30,29.98,29.84,12,1,12,0.00
2014-7-13,103.8,85.5,69.0,65.5,61.5,53.8,71,48,25,29.91,29.74,6,1,6,0.00
2014-7-14,107.0,89.0,75.9,67.5,63.8,60.3,69,46,24,29.81,29.74,4,1,4,0.00
2014-7-15,104.4,89.2,75.4,67.3,62.0,55.7,57,42,24,29.88,29.75,7,1,7,0.00
2014-7-16,98.1,84.3,71.6,63.9,60.0,54.8,60,45,29,29.91,29.76,8,2,8,0.00
2014-7-17,94.8,80.6,67.2,64.9,60.4,57.3,78,53,31,29.93,29.78,8,1,8,0.00
2014-7-18,94.7,80.0,66.1,65.2,61.0,56.4,77,54,34,29.92,29.78,9,1,9,0.00
2014-7-19,97.2,81.9,69.9,65.6,63.3,60.6,78,56,33,29.87,29.78,5,1,5,0.00
2014-7-20,98.0,83.4,73.6,69.1,63.7,58.6,71,53,33,29.87,29.75,8,1,8,0.00
2014-7-21,96.5,81.5,68.6,66.1,62.7,58.8,74,55,35,29.96,29.85,8,1,8,0.00
2014-7-22,99.0,83.0,69.3,67.7,63.1,48.9,83,54,28,29.97,29.88,9,1,9,0.00
2014-7-23,92.3,78.0,64.8,65.6,61.3,49.0,83,58,40,30.07,29.89,9,1,9,0.00
2014-7-24,97.3,80.1,63.6,63.0,60.2,55.8,84,55,28,29.94,29.72,8,1,8,0.00
2014-7-25,102.5,84.6,67.6,64.6,59.9,52.5,77,48,21,29.81,29.71,8,1,8,0.00
2014-7-26,105.7,86.7,69.5,64.7,58.2,48.1,70,42,17,29.85,29.74,7,1,7,0.00
2014-7-27,105.3,87.5,71.7,61.3,52.4,42.0,59,31,18,29.89,29.76,7,1,7,0.00
2014-7-28,93.5,84.0,73.4,58.6,53.9,41.7,55,37,19,29.95,29.86,4,1,4,0.00
2014-7-29,101.6,85.4,67.8,64.5,57.1,51.1,68,41,20,29.97,29.82,7,1,7,0.00
2014-7-30,102.3,87.0,76.2,65.6,61.5,56.7,65,44,26,29.90,29.79,12,1,12,0.00
2014-7-31,106.0,88.8,72.4,65.7,60.9,50.3,73,44,17,29.86,29.72,8,1,8,0.00
2014-8-1,106.7,90.0,72.4,65.4,57.5,44.3,69,38,15,29.82,29.69,7,1,7,0.00
2014-8-2,100.6,85.2,72.0,63.4,56.2,50.2,59,40,20,29.83,29.73,4,0,4,0.00
2014-8-3,86.5,81.8,76.0,66.2,58.9,49.5,67,47,34,29.88,29.79,4,0,4,0.00
2014-8-4,98.3,82.9,73.6,66.9,59.8,46.3,77,49,19,29.88,29.78,9,1,9,0.00
2014-8-5,95.8,80.7,66.2,65.1,62.0,58.1,83,57,30,29.95,29.84,10,1,10,0.00
2014-8-6,92.3,79.2,66.0,67.9,63.9,60.3,84,62,37,29.96,29.82,7,1,7,0.00
2014-8-7,98.8,82.5,68.2,67.3,64.3,61.1,80,57,32,29.88,29.73,7,1,7,0.00
2014-8-8,101.9,85.4,70.5,66.1,62.4,57.7,75,50,24,29.82,29.69,8,1,8,0.00
2014-8-9,103.1,84.7,68.2,63.1,60.0,55.3,74,47,23,29.85,29.73,8,1,8,0.00
2014-8-10,99.8,82.1,65.9,62.7,58.5,52.1,75,48,24,29.89,29.76,7,1,7,0.00
2014-8-11,104.8,85.2,66.6,61.6,57.8,48.8,75,44,20,29.89,29.74,7,1,7,0.00
2014-8-12,102.2,86.1,72.2,63.4,56.9,49.1,55,39,21,29.88,29.73,8,1,8,0.00
2014-8-13,97.3,82.4,67.6,65.1,61.3,56.6,78,52,30,29.88,29.75,12,2,12,0.00
2014-8-14,100.3,81.0,65.0,64.7,59.0,49.5,78,51,20,29.88,29.75,6,1,6,0.00
2014-8-15,102.7,82.6,66.0,61.5,54.0,29.9,65,41,10,29.91,29.80,7,1,7,0.00
2014-8-16,102.3,82.7,65.4,59.9,49.4,37.7,54,34,14,29.96,29.82,6,1,6,0.00
2014-8-17,102.0,83.0,66.2,60.3,53.5,42.8,67,39,16,29.93,29.75,7,1,7,0.00
2014-8-18,101.5,81.4,64.7,58.8,53.5,41.0,69,43,14,29.80,29.64,8,1,8,0.00
2014-8-19,94.3,79.0,66.4,60.7,52.2,45.6,57,41,22,29.76,29.66,7,1,7,0.00
2014-8-20,93.0,77.9,64.0,62.4,55.7,47.3,65,48,27,29.85,29.73,8,1,8,0.00
2014-8-21,97.3,80.0,64.1,63.4,58.2,53.5,70,50,25,29.89,29.75,8,1,8,0.00
2014-8-22,99.7,82.0,65.7,62.3,56.8,49.1,73,46,22,29.87,29.73,9,1,9,0.00
2014-8-23,96.1,79.7,64.2,59.8,53.7,46.6,62,42,26,29.86,29.71,10,1,10,0.00
2014-8-24,96.1,79.1,65.0,60.2,54.4,50.6,61,45,25,29.80,29.66,9,1,9,0.00
2014-8-25,98.2,77.5,64.2,59.3,52.4,45.2,64,44,18,29.83,29.71,6,1,6,0.00
2014-8-26,93.2,75.9,61.0,61.4,55.2,48.8,72,51,26,29.94,29.81,6,1,6,0.00
2014-8-27,101.5,80.2,63.3,59.6,54.3,48.6,81,45,18,30.00,29.87,8,1,8,0.00
2014-8-28,104.2,82.0,63.5,60.6,52.3,43.4,62,39,15,29.97,29.79,6,1,6,0.00
2014-8-29,101.8,81.5,63.8,59.4,55.0,48.8,67,43,20,29.85,29.72,7,1,7,0.00
2014-8-30,101.8,80.8,65.2,61.6,56.5,51.8,69,47,21,29.83,29.70,8,1,8,0.00
2014-8-31,97.0,78.5,60.7,57.7,52.3,44.0,78,45,17,29.84,29.70,6,1,6,0.00
2014-9-1,99.6,80.3,63.5,58.6,53.4,47.7,67,43,19,29.78,29.66,8,1,8,0.00
2014-9-2,102.8,84.5,65.7,61.9,56.4,50.6,72,42,19,29.75,29.60,6,1,6,0.00
2014-9-3,98.2,80.8,65.6,60.3,56.0,52.2,64,45,22,29.69,29.55,6,1,6,0.00
2014-9-4,97.8,79.8,64.6,63.4,57.7,52.4,70,50,24,29.67,29.59,6,1,6,0.00
2014-9-5,100.6,80.3,63.5,61.3,55.1,42.0,71,45,22,29.80,29.67,5,1,5,0.00
2014-9-6,100.7,80.7,64.4,61.4,53.1,41.5,59,41,19,29.87,29.72,6,1,6,0.00
2014-9-7,97.5,80.0,62.8,62.3,55.3,48.5,67,45,23,29.81,29.63,6,1,6,0.00
2014-9-8,94.0,78.4,68.8,66.7,59.9,48.1,78,55,23,29.81,29.70,4,1,4,0.01
2014-9-9,93.3,75.6,60.0,58.0,51.2,46.1,64,45,21,29.91,29.79,7,1,7,0.00
2014-9-10,97.5,74.7,59.4,58.0,51.9,47.3,78,49,20,29.90,29.73,9,0,9,0.00
2014-9-11,100.2,80.5,62.8,58.7,53.1,43.8,73,43,17,29.84,29.70,7,1,7,0.00
2014-9-12,102.6,81.3,63.5,59.5,53.6,46.6,71,43,16,29.82,29.66,7,1,7,0.00
2014-9-13,106.5,83.5,66.8,59.9,53.4,44.7,65,40,14,29.77,29.63,6,1,6,0.00
2014-9-14,102.5,84.4,70.5,62.1,56.4,50.3,60,41,20,29.76,29.64,7,1,7,0.00
2014-9-15,103.3,84.6,68.6,62.2,58.2,54.0,66,44,20,29.80,29.69,6,1,6,0.00
2014-9-16,99.3,80.5,67.5,62.9,59.5,56.1,70,52,27,29.85,29.68,5,0,5,0.00
2014-9-17,101.5,82.4,66.7,62.5,59.2,51.8,78,49,21,29.74,29.62,5,1,5,0.00
2014-9-18,91.5,76.5,63.1,63.7,57.0,48.4,69,52,35,29.82,29.68,7,1,7,0.00
2014-9-19,89.6,75.6,64.2,64.8,61.4,58.9,84,63,38,29.86,29.73,7,1,7,0.00
2014-9-20,94.9,77.6,64.5,63.3,60.4,57.0,83,59,31,29.85,29.73,5,1,5,0.00
2014-9-21,91.5,75.0,65.0,72.8,59.3,56.1,94,61,32,29.92,29.80,6,1,6,0.00
2014-9-22,93.7,75.6,60.9,63.9,60.0,56.7,88,62,33,29.97,29.82,5,1,5,0.00
2014-9-23,95.0,76.8,62.6,64.1,60.4,57.2,85,60,30,29.94,29.79,5,1,5,0.00
2014-9-24,95.3,76.0,60.4,62.4,59.0,53.7,84,59,30,29.92,29.75,4,1,4,0.00
2014-9-25,89.2,72.7,61.4,64.9,58.5,49.6,87,63,36,29.94,29.81,14,2,14,0.00
2014-9-26,82.6,69.4,60.0,60.2,55.5,49.9,85,63,39,29.93,29.77,7,1,7,0.00
2014-9-27,79.8,65.5,54.1,55.6,51.2,47.1,85,62,35,29.91,29.77,12,1,12,0.00
2014-9-28,82.8,68.8,57.4,56.1,51.6,47.8,75,56,34,29.88,29.79,5,1,5,0.00
2014-9-29,83.9,68.2,54.4,56.3,53.9,51.0,90,64,33,30.00,29.87,6,1,6,0.00
2014-9-30,87.3,70.5,55.7,57.7,54.6,51.1,87,61,34,29.93,29.73,5,1,5,0.00
2014-10-1,88.5,70.1,56.3,59.0,55.3,51.2,89,63,33,29.90,29.77,5,1,5,0.00
2014-10-2,93.2,72.7,57.9,57.6,53.2,46.6,85,56,22,30.03,29.90,6,1,6,0.00
2014-10-3,96.5,74.1,56.7,54.2,50.1,43.9,79,48,18,30.08,29.95,5,1,5,0.00
2014-10-4,89.7,71.6,58.0,62.4,51.5,45.5,73,52,25,30.02,29.87,4,0,4,0.00
2014-10-5,98.1,75.1,57.8,55.9,50.8,45.8,83,48,19,29.95,29.81,5,1,5,0.00
2014-10-6,98.7,75.8,58.0,56.0,50.6,40.5,77,47,15,29.90,29.75,4,0,4,0.00
2014-10-7,99.0,75.8,58.4,57.4,51.3,46.3,73,47,18,29.86,29.73,9,0,9,0.00
2014-10-8,95.7,74.5,58.7,57.2,52.9,49.1,79,51,23,29.86,29.75,4,0,4,0.00
2014-10-9,94.0,73.5,58.5,55.8,48.8,41.3,72,45,17,29.90,29.80,5,1,5,0.00
2014-10-10,88.7,70.9,53.9,54.2,48.9,43.8,74,49,23,29.98,29.88,6,1,6,0.00
2014-10-11,90.0,70.4,54.9,57.5,51.3,46.9,80,55,26,30.00,29.88,6,1,6,0.00
2014-10-12,90.3,70.4,56.8,57.6,53.8,48.8,81,59,30,29.95,29.85,4,0,4,0.00
2014-10-13,95.3,72.1,56.2,57.1,51.2,41.5,81,53,17,29.98,29.83,4,0,4,0.00
2014-10-14,95.8,72.7,56.2,56.4,45.9,35.0,68,44,13,29.90,29.71,7,1,7,0.00
2014-10-15,79.8,68.2,59.6,56.8,53.9,51.8,80,62,40,29.99,29.84,7,1,7,0.00
2014-10-16,81.0,65.3,53.7,57.2,53.4,49.4,86,68,40,30.01,29.87,5,0,5,0.00
2014-10-17,79.0,65.0,53.9,56.3,53.2,48.9,86,67,42,29.94,29.88,5,1,5,0.00
2014-10-18,82.0,66.3,56.4,56.4,52.1,48.9,81,63,34,29.97,29.83,6,0,6,0.00
2014-10-19,84.5,66.3,52.2,56.4,52.2,48.3,88,64,34,29.91,29.79,7,1,7,0.00
2014-10-20,83.4,66.9,53.6,58.0,53.7,49.7,88,65,38,29.96,29.83,8,1,8,0.00
2014-10-21,76.2,62.7,52.9,56.2,53.2,49.8,91,73,47,30.06,29.93,4,0,4,0.00
2014-10-22,78.8,62.3,49.3,53.0,49.8,46.2,91,67,37,30.05,29.97,4,0,4,0.00
2014-10-23,82.0,63.3,49.8,54.5,50.7,46.7,90,67,36,30.05,29.94,5,0,5,0.00
2014-10-24,87.5,65.2,50.3,57.2,51.8,46.8,89,66,31,29.99,29.83,4,0,4,0.00
2014-10-25,83.7,65.7,53.1,55.4,49.8,45.1,85,60,28,30.06,29.91,8,1,8,0.00
2014-10-26,74.2,61.3,52.4,55.7,52.0,48.1,93,73,48,30.09,29.96,4,1,4,0.00
2014-10-27,75.7,58.6,47.2,50.0,46.4,42.4,85,66,37,30.05,29.94,4,0,4,0.00
2014-10-28,77.5,59.7,46.2,52.1,47.6,43.1,90,67,37,30.11,30.02,5,0,5,0.00
2014-10-29,81.8,61.6,47.4,52.7,49.0,44.3,91,67,34,30.13,29.97,5,0,5,0.00
2014-10-30,85.3,64.5,49.9,54.2,48.8,45.9,88,61,29,30.00,29.82,4,0,4,0.00
2014-10-31,77.9,62.4,51.4,56.3,50.3,43.0,95,66,43,29.90,29.70,12,1,12,0.90
2014-11-1,62.2,54.6,50.1,55.7,52.3,49.0,97,92,70,30.01,29.77,6,0,6,0.09
2014-11-2,64.3,52.6,45.9,54.4,49.0,45.1,98,89,60,30.17,30.01,6,0,6,0.00
2014-11-3,67.5,53.5,43.3,52.5,47.8,42.5,98,83,55,30.26,30.17,4,0,4,0.00
2014-11-4,69.1,54.2,42.5,53.7,48.8,41.7,98,84,55,30.33,30.21,6,0,6,0.00
2014-11-5,72.4,56.0,44.0,56.2,50.6,43.2,98,84,55,30.25,30.10,5,0,5,0.00
2014-11-6,83.3,61.1,46.9,59.9,53.2,45.8,97,79,38,30.22,30.10,4,0,4,0.00
2014-11-7,76.6,60.0,48.9,60.0,53.8,47.8,98,82,49,30.21,30.07,4,0,4,0.00
2014-11-8,76.2,60.2,48.8,59.4,54.4,47.8,98,83,54,30.14,30.00,4,0,4,0.00
2014-11-9,77.5,60.8,49.9,60.5,55.3,49.1,98,84,52,30.03,29.81,4,0,4,0.00
2014-11-10,76.8,60.2,49.0,60.4,54.7,48.2,98,84,52,29.83,29.75,4,0,4,0.00
2014-11-11,68.7,59.8,51.1,57.8,54.2,49.9,97,83,63,29.94,29.79,5,0,5,0.00
2014-11-12,69.7,58.2,51.6,57.3,53.5,50.1,97,85,56,30.01,29.92,4,0,4,0.00
2014-11-13,71.3,60.2,49.5,56.8,53.3,47.6,96,79,57,30.06,29.97,4,0,4,0.00
2014-11-14,66.1,56.9,52.3,58.4,54.5,51.0,97,92,75,30.10,30.01,2,0,2,0.00
2014-11-15,67.6,56.8,47.9,56.0,51.8,46.4,98,84,58,30.15,30.05,6,1,6,0.00
2014-11-16,68.5,55.5,47.0,54.6,49.1,45.3,97,81,50,30.26,30.14,4,0,4,0.00
2014-11-17,68.3,50.7,40.5,48.9,44.4,39.4,97,81,46,30.26,30.13,4,0,4,0.00
2014-11-18,70.9,53.2,38.1,46.4,42.6,36.5,95,72,35,30.19,30.06,4,0,4,0.00
2014-11-19,71.4,57.9,49.0,49.1,44.7,37.1,83,64,33,30.13,30.05,7,0,7,0.00
2014-11-20,66.7,55.6,45.2,53.2,48.2,41.5,94,77,56,30.11,29.97,4,0,4,0.08
2014-11-21,54.5,51.9,46.7,52.9,50.2,45.6,97,94,88,30.20,29.99,4,0,4,0.35
2014-11-22,65.7,54.4,43.0,55.0,49.5,42.2,98,85,58,30.21,30.09,4,0,4,0.00
2014-11-23,66.7,55.2,47.5,54.3,50.6,45.3,96,85,59,30.32,30.16,4,0,4,0.00
2014-11-24,65.0,51.2,41.8,50.6,46.2,40.5,97,84,58,30.44,30.29,5,0,5,0.00
2014-11-25,68.1,50.4,39.0,51.7,45.1,38.1,98,84,53,30.49,30.36,4,0,4,0.00
2014-11-26,70.5,53.9,45.8,51.6,47.8,44.4,95,81,51,30.34,30.22,4,0,4,0.00
2014-11-27,74.0,53.3,40.9,53.4,46.9,39.8,98,82,46,30.22,30.06,4,0,4,0.00
2014-11-28,77.6,55.1,40.3,54.0,45.5,39.3,98,75,35,30.06,29.86,4,0,4,0.00
2014-11-29,50.9,48.9,46.5,38.2,36.9,35.5,67,63,58,29.90,29.88,1,0,1,0.00
2014-11-30,70.1,59.9,47.0,48.0,44.7,35.6,85,60,35,30.07,29.86,4,0,4,0.00
2014-12-1,71.3,58.3,44.4,51.6,48.2,42.8,95,72,47,30.16,30.00,5,0,5,0.00
2014-12-2,62.1,55.6,52.2,60.4,53.5,47.5,98,93,83,30.01,29.76,4,0,4,0.60
2014-12-3,76.3,58.9,50.2,61.3,53.7,49.7,98,85,47,29.95,29.84,4,0,4,0.00
2014-12-4,70.6,56.9,47.3,56.7,51.9,46.2,97,85,58,30.04,29.92,5,0,5,0.00
2014-12-5,66.5,55.5,48.2,58.5,52.2,47.1,97,89,70,30.13,30.03,4,0,4,0.00
2014-12-6,73.0,55.9,45.7,55.7,50.1,44.6,97,83,51,30.25,30.12,4,0,4,0.00
2014-12-7,68.9,52.6,44.2,55.0,48.4,43.1,97,87,58,30.24,30.15,4,0,4,0.00
2014-12-8,68.8,53.0,43.7,56.4,48.9,42.6,97,87,58,30.22,30.11,5,0,5,0.00
2014-12-9,62.6,51.0,43.3,54.7,48.6,42.3,97,92,74,30.25,30.10,4,0,4,0.00
2014-12-10,62.9,50.8,46.6,54.3,49.0,45.5,98,94,70,30.11,29.88,2,0,2,0.01
2014-12-11,71.8,57.3,48.5,54.2,48.9,43.0,97,76,37,29.89,29.56,10,0,10,0.00
2014-12-12,71.8,51.9,47.9,52.4,49.4,43.6,97,92,37,30.09,29.56,13,1,13,1.06
2014-12-13,59.2,49.1,40.2,50.3,46.2,39.4,97,90,66,30.23,30.09,5,0,5,0.00
2014-12-14,59.6,44.5,36.3,48.8,41.7,35.4,98,91,65,30.20,30.06,4,0,4,0.00
2014-12-15,60.7,48.6,38.8,49.1,44.9,38.0,98,88,62,30.07,29.88,8,0,8,0.05
2014-12-16,63.2,52.0,46.3,53.9,48.3,45.1,97,88,62,30.04,29.93,4,0,4,0.00
2014-12-17,55.9,50.0,43.7,52.1,48.4,42.6,97,94,85,30.16,29.95,4,0,4,0.13
2014-12-18,63.4,49.1,39.7,48.7,44.2,38.9,98,85,49,30.23,30.13,5,0,5,0.00
2014-12-19,61.4,49.7,41.4,50.0,45.4,40.0,97,86,63,30.26,30.15,4,0,4,0.00
2014-12-20,65.4,53.5,45.8,52.5,48.1,43.6,95,83,58,30.28,30.15,4,0,4,0.00
2014-12-21,62.5,53.2,44.4,55.6,50.7,43.6,98,91,75,30.32,30.23,4,0,4,0.00
2014-12-22,66.3,59.2,54.7,57.4,55.1,53.2,96,87,71,30.26,30.15,4,0,4,0.00
2014-12-23,65.1,57.1,52.5,56.4,53.5,50.8,96,88,70,30.25,30.14,5,0,5,0.00
2014-12-24,64.8,54.7,44.4,57.0,51.3,43.6,98,89,70,30.14,29.87,15,1,15,0.07
2014-12-25,57.7,47.9,38.8,46.3,41.5,36.9,95,79,54,30.07,29.93,7,1,7,0.00
2014-12-26,57.5,43.0,34.3,41.5,37.3,33.1,96,82,53,30.28,30.05,5,0,5,0.00
2014-12-27,57.7,41.6,31.8,41.9,36.0,30.8,97,83,50,30.40,30.26,7,0,7,0.00
2014-12-28,57.2,41.7,32.2,41.3,36.0,30.4,95,82,53,30.36,30.25,4,0,4,0.00
2014-12-29,57.7,41.1,30.1,42.0,35.7,29.1,98,83,52,30.28,30.09,4,0,4,0.00
2014-12-30,45.5,40.2,34.5,42.2,38.0,32.8,97,92,86,30.11,30.05,4,0,4,0.00
2014-12-31,46.9,38.9,28.8,40.0,36.1,27.4,97,90,72,30.22,30.10,4,0,4,0.01
2015-1-1,57.3,37.5,26.1,31.7,28.1,24.6,96,74,31,30.20,30.11,4,0,4,0.00
2015-1-2,57.1,38.0,26.9,35.2,30.0,24.9,93,76,39,30.24,30.11,5,0,5,0.00